createdAt,value
2017-11-17T00:01:52.830Z,72.33
2017-11-17T00:04:19.221Z,72.46
2017-11-17T00:06:45.569Z,73.03
2017-11-17T00:09:12.001Z,73.19
2017-11-17T00:11:38.366Z,72.78
2017-11-17T00:14:04.719Z,72.79
2017-11-17T00:16:31.129Z,72.57
2017-11-17T00:18:57.477Z,72.78
2017-11-17T00:21:23.823Z,72.92
2017-11-17T00:23:50.320Z,74.21
2017-11-17T00:26:16.753Z,74.72
2017-11-17T00:28:43.109Z,75.19
2017-11-17T00:31:09.493Z,74.91
2017-11-17T00:33:35.885Z,74.01
2017-11-17T00:36:02.266Z,74.65
2017-11-17T00:38:28.690Z,74.38
2017-11-17T00:40:55.046Z,73.97
2017-11-17T00:43:21.428Z,73.51
2017-11-17T00:45:47.853Z,73.62
2017-11-17T00:48:14.209Z,72.85
2017-11-17T00:50:40.557Z,72.90
2017-11-17T00:53:06.949Z,72.50
2017-11-17T00:55:33.327Z,72.78
2017-11-17T00:57:59.680Z,73.42
2017-11-17T01:00:26.053Z,73.40
2017-11-17T01:02:52.404Z,73.05
2017-11-17T01:05:18.785Z,73.19
2017-11-17T01:07:45.167Z,73.44
2017-11-17T01:10:11.510Z,73.76
2017-11-17T01:12:37.881Z,73.61
2017-11-17T01:15:04.270Z,73.85
2017-11-17T01:17:30.645Z,73.84
2017-11-17T01:19:57.006Z,73.90
2017-11-17T01:22:23.490Z,74.36
2017-11-17T01:24:49.862Z,74.16
2017-11-17T01:27:16.223Z,73.83
2017-11-17T01:29:42.656Z,73.91
2017-11-17T01:32:09.026Z,74.45
2017-11-17T01:34:35.378Z,74.42
2017-11-17T01:37:01.790Z,74.20
2017-11-17T01:39:28.161Z,73.58
2017-11-17T01:41:54.506Z,73.49
2017-11-17T01:44:20.954Z,73.73
2017-11-17T01:46:47.412Z,73.94
2017-11-17T01:49:13.802Z,73.62
2017-11-17T01:51:40.193Z,73.29
2017-11-17T01:54:06.618Z,73.62
2017-11-17T01:56:33.041Z,73.65
2017-11-17T01:58:59.492Z,73.36
2017-11-17T02:01:25.885Z,73.80
2017-11-17T02:03:52.445Z,74.46
2017-11-17T02:06:18.884Z,74.94
2017-11-17T02:08:45.946Z,75.26
2017-11-17T02:11:12.358Z,74.95
2017-11-17T02:13:38.774Z,75.00
2017-11-17T02:16:05.157Z,74.59
2017-11-17T02:18:31.561Z,75.03
2017-11-17T02:20:58.065Z,74.22
2017-11-17T02:23:24.541Z,74.28
2017-11-17T02:25:50.962Z,74.07
2017-11-17T02:28:17.502Z,73.94
2017-11-17T02:30:43.933Z,73.31
2017-11-17T02:33:10.328Z,73.03
2017-11-17T02:35:36.833Z,73.65
2017-11-17T02:38:03.330Z,73.66
2017-11-17T02:40:29.769Z,73.81
2017-11-17T02:42:56.245Z,73.92
2017-11-17T02:45:22.733Z,73.13
2017-11-17T02:47:49.183Z,73.19
2017-11-17T02:50:15.647Z,72.89
2017-11-17T02:52:42.104Z,73.15
2017-11-17T02:55:08.578Z,73.41
2017-11-17T02:57:35.025Z,74.24
2017-11-17T03:00:01.470Z,73.62
2017-11-17T03:02:27.893Z,74.01
2017-11-17T03:04:54.335Z,74.07
2017-11-17T03:07:20.700Z,74.41
2017-11-17T03:09:47.122Z,74.37
2017-11-17T03:12:13.637Z,74.75
2017-11-17T03:14:40.113Z,73.89
2017-11-17T03:17:06.542Z,74.20
2017-11-17T03:19:32.981Z,73.71
2017-11-17T03:21:59.389Z,73.65
2017-11-17T03:24:25.794Z,73.41
2017-11-17T03:26:52.310Z,73.46
2017-11-17T03:29:18.788Z,73.84
2017-11-17T03:31:45.193Z,73.51
2017-11-17T03:34:11.634Z,73.00
2017-11-17T03:36:38.017Z,73.08
2017-11-17T03:39:04.417Z,73.85
2017-11-17T03:41:30.873Z,73.75
2017-11-17T03:43:57.335Z,72.98
2017-11-17T03:46:23.713Z,73.24
2017-11-17T03:48:50.137Z,73.35
2017-11-17T03:51:16.493Z,73.32
2017-11-17T03:53:42.862Z,73.18
2017-11-17T03:56:09.274Z,73.99
2017-11-17T03:58:35.645Z,74.08
2017-11-17T04:01:02.162Z,74.18
2017-11-17T04:03:28.704Z,74.41
2017-11-17T04:05:55.113Z,74.29
2017-11-17T04:08:21.517Z,74.29
2017-11-17T04:10:47.947Z,74.08
2017-11-17T04:13:14.392Z,74.51
2017-11-17T04:15:40.784Z,73.97
2017-11-17T04:18:07.198Z,73.81
2017-11-17T04:20:33.613Z,73.97
2017-11-17T04:23:00.014Z,74.06
2017-11-17T04:25:26.597Z,73.97
2017-11-17T04:27:52.966Z,73.86
2017-11-17T04:30:19.394Z,74.11
2017-11-17T04:32:45.842Z,73.56
2017-11-17T04:35:12.257Z,73.64
2017-11-17T04:37:38.637Z,74.23
2017-11-17T04:40:05.062Z,73.87
2017-11-17T04:42:31.452Z,73.49
2017-11-17T04:44:57.826Z,73.81
2017-11-17T04:47:24.258Z,74.28
2017-11-17T04:49:50.662Z,74.29
2017-11-17T04:52:17.036Z,74.37
2017-11-17T04:54:43.496Z,74.44
2017-11-17T04:57:09.881Z,74.83
2017-11-17T04:59:36.252Z,74.92
2017-11-17T05:02:02.661Z,74.10
2017-11-17T05:04:29.041Z,73.37
2017-11-17T05:06:55.465Z,73.17
2017-11-17T05:09:21.918Z,72.57
2017-11-17T05:11:48.327Z,72.71
2017-11-17T05:14:14.709Z,72.92
2017-11-17T05:16:41.121Z,73.75
2017-11-17T05:19:07.537Z,72.99
2017-11-17T05:21:33.876Z,73.28
2017-11-17T05:24:00.277Z,73.04
2017-11-17T05:26:26.614Z,72.82
2017-11-17T05:28:52.945Z,72.90
2017-11-17T05:31:19.353Z,72.94
2017-11-17T05:33:45.746Z,72.78
2017-11-17T05:36:12.086Z,72.74
2017-11-17T05:38:38.486Z,73.64
2017-11-17T05:41:04.830Z,73.28
2017-11-17T05:43:31.336Z,74.27
2017-11-17T05:45:57.770Z,72.81
2017-11-17T05:48:24.116Z,72.40
2017-11-17T05:50:50.458Z,72.82
2017-11-17T05:53:16.845Z,72.62
2017-11-17T05:55:43.194Z,73.08
2017-11-17T05:58:09.541Z,72.96
2017-11-17T06:00:35.927Z,72.96
2017-11-17T06:03:02.315Z,72.88
2017-11-17T06:05:28.681Z,72.63
2017-11-17T06:07:55.107Z,73.46
2017-11-17T06:10:21.473Z,72.92
2017-11-17T06:12:47.938Z,72.15
2017-11-17T06:15:14.362Z,73.15
2017-11-17T06:17:40.726Z,72.55
2017-11-17T06:20:07.376Z,72.84
2017-11-17T06:22:33.859Z,73.71
2017-11-17T06:25:00.249Z,73.16
2017-11-17T06:27:26.622Z,73.38
2017-11-17T06:29:53.158Z,73.25
2017-11-17T06:32:19.516Z,73.40
2017-11-17T06:34:45.908Z,73.70
2017-11-17T06:37:12.293Z,73.45
2017-11-17T06:39:38.642Z,73.15
2017-11-17T06:42:04.993Z,73.33
2017-11-17T06:44:32.140Z,73.39
2017-11-17T06:46:58.714Z,73.41
2017-11-17T06:49:25.057Z,73.36
2017-11-17T06:51:51.777Z,73.40
2017-11-17T06:54:18.209Z,72.75
2017-11-17T06:56:44.589Z,72.72
2017-11-17T06:59:11.053Z,73.13
2017-11-17T07:01:37.464Z,73.13
2017-11-17T07:04:03.834Z,72.71
2017-11-17T07:06:30.262Z,72.38
2017-11-17T07:08:56.637Z,72.51
2017-11-17T07:11:23.010Z,72.62
2017-11-17T07:13:49.471Z,72.89
2017-11-17T07:16:15.965Z,72.83
2017-11-17T07:18:42.335Z,73.72
2017-11-17T07:21:08.836Z,74.06
2017-11-17T07:23:35.221Z,74.44
2017-11-17T07:26:01.675Z,74.66
2017-11-17T07:28:28.106Z,74.24
2017-11-17T07:30:54.469Z,74.21
2017-11-17T07:33:20.990Z,74.29
2017-11-17T07:35:47.449Z,74.59
2017-11-17T07:38:13.809Z,74.60
2017-11-17T07:40:40.149Z,74.14
2017-11-17T07:43:06.546Z,74.30
2017-11-17T07:45:32.945Z,74.50
2017-11-17T07:47:59.313Z,74.89
2017-11-17T07:50:25.738Z,74.48
2017-11-17T07:52:52.210Z,74.08
2017-11-17T07:55:19.385Z,73.98
2017-11-17T07:57:45.961Z,73.95
2017-11-17T08:00:12.333Z,74.01
2017-11-17T08:02:38.673Z,74.63
2017-11-17T08:05:05.098Z,74.20
2017-11-17T08:07:31.442Z,74.36
2017-11-17T08:09:58.298Z,74.87
2017-11-17T08:12:24.777Z,74.94
2017-11-17T08:14:51.149Z,75.64
2017-11-17T08:17:23.653Z,75.26
2017-11-17T08:19:50.215Z,74.60
2017-11-17T08:22:16.594Z,74.35
2017-11-17T08:24:42.977Z,74.54
2017-11-17T08:27:09.593Z,74.35
2017-11-17T08:29:36.444Z,73.73
2017-11-17T08:32:02.948Z,73.15
2017-11-17T08:34:29.421Z,72.86
2017-11-17T08:36:55.798Z,72.73
2017-11-17T08:39:22.257Z,72.61
2017-11-17T08:42:04.900Z,72.71
2017-11-17T09:19:25.429Z,75.80
2017-11-17T09:22:06.957Z,75.76
2017-11-17T09:24:52.739Z,75.60
2017-11-17T09:44:01.609Z,74.72
2017-11-17T10:08:42.581Z,74.09
2017-11-17T10:35:28.183Z,77.81
2017-11-17T10:37:54.618Z,77.26
2017-11-17T10:40:21.041Z,76.67
2017-11-17T10:42:47.490Z,75.71
2017-11-17T10:45:13.906Z,75.23
2017-11-17T10:47:40.618Z,74.95
2017-11-17T10:50:07.127Z,74.17
2017-11-17T10:52:33.573Z,74.43
2017-11-17T10:55:00.026Z,74.60
2017-11-17T10:57:26.619Z,74.88
2017-11-17T10:59:53.242Z,75.23
2017-11-17T11:02:19.721Z,75.13
2017-11-17T11:04:46.227Z,74.93
2017-11-17T11:07:12.749Z,75.12
2017-11-17T11:09:39.431Z,75.35
2017-11-17T11:12:05.967Z,74.94
2017-11-17T11:14:32.382Z,73.91
2017-11-17T11:16:59.090Z,73.60
2017-11-17T11:19:25.778Z,73.88
2017-11-17T11:21:52.194Z,74.18
2017-11-17T11:24:18.626Z,74.58
2017-11-17T11:26:45.057Z,75.69
2017-11-17T11:29:11.642Z,76.00
2017-11-17T11:31:38.041Z,75.57
2017-11-17T11:34:04.561Z,75.29
2017-11-17T11:36:31.529Z,75.77
2017-11-17T11:38:57.933Z,75.98
2017-11-17T11:41:24.317Z,76.68
2017-11-17T11:43:50.757Z,76.63
2017-11-17T11:46:17.245Z,76.33
2017-11-17T11:48:43.695Z,76.38
2017-11-17T11:51:10.065Z,76.52
2017-11-17T11:53:36.466Z,76.81
2017-11-17T11:56:02.983Z,76.17
2017-11-17T11:58:29.406Z,75.97
2017-11-17T12:00:55.860Z,75.76
2017-11-17T12:03:22.318Z,75.65
2017-11-17T12:05:48.709Z,75.32
2017-11-17T12:08:15.165Z,75.60
2017-11-17T12:10:41.565Z,75.62
2017-11-17T12:13:07.947Z,75.68
2017-11-17T12:15:34.306Z,75.70
2017-11-17T12:18:00.790Z,75.87
2017-11-17T12:20:27.178Z,75.71
2017-11-17T12:22:53.590Z,75.87
2017-11-17T12:25:20.627Z,75.80
2017-11-17T12:27:47.446Z,76.08
2017-11-17T12:30:13.855Z,75.27
2017-11-17T12:32:40.271Z,75.42
2017-11-17T12:35:06.746Z,75.83
2017-11-17T12:37:33.154Z,75.33
2017-11-17T12:39:59.562Z,76.00
2017-11-17T12:42:25.965Z,76.34
2017-11-17T12:44:52.330Z,76.19
2017-11-17T12:47:18.745Z,76.70
2017-11-17T12:49:45.097Z,76.99
2017-11-17T12:52:11.469Z,77.20
2017-11-17T12:54:37.889Z,77.19
2017-11-17T12:57:04.270Z,76.70
2017-11-17T12:59:32.510Z,76.39
2017-11-17T13:01:58.916Z,76.82
2017-11-17T13:04:25.325Z,76.94
2017-11-17T14:57:00.795Z,77.27
2017-11-17T14:59:27.402Z,77.45
2017-11-17T15:01:53.941Z,76.76
2017-11-17T15:04:20.442Z,78.21
2017-11-17T15:06:46.835Z,78.79
2017-11-17T15:09:13.547Z,78.85
2017-11-17T15:11:40.185Z,78.41
2017-11-17T15:14:06.590Z,79.30
2017-11-17T15:16:33.153Z,79.48
2017-11-17T15:18:59.665Z,79.84
2017-11-17T15:21:26.110Z,79.92
2017-11-17T15:23:52.569Z,79.80
2017-11-17T15:26:19.192Z,80.41
2017-11-17T15:28:45.635Z,80.71
2017-11-17T15:31:12.169Z,80.92
2017-11-17T15:33:38.739Z,80.96
2017-11-17T15:36:05.986Z,81.04
2017-11-17T15:38:32.587Z,80.70
2017-11-17T15:40:59.377Z,80.64
2017-11-17T15:43:25.898Z,80.33
2017-11-17T15:45:52.502Z,79.92
2017-11-17T15:48:21.103Z,79.93
2017-11-17T15:50:47.901Z,80.01
2017-11-17T15:53:14.389Z,80.33
2017-11-17T15:55:40.942Z,80.44
2017-11-17T15:58:07.338Z,80.11
2017-11-17T16:00:33.873Z,79.77
2017-11-17T16:03:00.338Z,79.66
2017-11-17T16:05:26.888Z,79.47
2017-11-17T16:07:53.374Z,79.71
2017-11-17T16:10:19.838Z,79.85
2017-11-17T16:12:46.294Z,79.94
2017-11-17T16:15:12.720Z,79.78
2017-11-17T16:17:39.250Z,79.22
2017-11-17T16:20:05.818Z,78.59
2017-11-17T16:22:32.306Z,79.22
2017-11-17T16:24:58.775Z,78.52
2017-11-17T16:27:25.256Z,79.14
2017-11-17T16:29:51.772Z,79.13
2017-11-17T16:32:18.294Z,77.93
2017-11-17T16:34:44.775Z,77.84
2017-11-17T16:37:11.217Z,77.25
2017-11-17T16:39:37.654Z,77.19
2017-11-17T16:42:04.286Z,77.59
2017-11-17T16:44:30.766Z,77.65
2017-11-17T16:46:57.258Z,77.73
2017-11-17T16:49:23.763Z,78.02
2017-11-17T16:51:50.241Z,78.33
2017-11-17T16:54:16.782Z,77.82
2017-11-17T16:56:43.189Z,77.69
2017-11-17T16:59:09.629Z,77.50
2017-11-17T17:01:36.106Z,77.02
2017-11-17T17:04:02.570Z,76.79
2017-11-17T17:06:29.006Z,76.44
2017-11-17T17:08:55.819Z,76.36
2017-11-17T17:11:22.334Z,76.75
2017-11-17T17:13:48.740Z,75.76
2017-11-17T17:16:15.187Z,75.54
2017-11-17T17:18:41.618Z,75.99
2017-11-17T17:21:09.144Z,76.16
2017-11-17T17:23:36.662Z,75.31
2017-11-17T17:26:03.227Z,74.75
2017-11-17T17:28:29.661Z,74.54
2017-11-17T17:30:56.200Z,74.53
2017-11-17T17:33:22.608Z,74.30
2017-11-17T17:35:48.982Z,74.06
2017-11-17T17:38:15.497Z,74.08
2017-11-17T17:40:41.862Z,73.32
2017-11-17T17:43:08.283Z,73.27
2017-11-17T17:45:34.742Z,73.14
2017-11-17T17:48:01.168Z,73.28
2017-11-17T17:50:27.755Z,73.11
2017-11-17T17:52:54.422Z,73.04
2017-11-17T17:55:20.954Z,72.75
2017-11-17T17:57:47.682Z,72.38
2017-11-17T18:00:14.701Z,72.71
2017-11-17T18:02:41.218Z,72.41
2017-11-17T18:05:07.661Z,72.50
2017-11-17T18:07:34.165Z,72.32
2017-11-17T18:10:00.617Z,72.16
2017-11-17T18:12:27.081Z,72.30
2017-11-17T18:14:53.641Z,72.35
2017-11-17T18:17:20.068Z,72.36
2017-11-17T18:19:46.666Z,71.97
2017-11-17T18:22:13.170Z,72.12
2017-11-17T18:24:39.621Z,72.19
2017-11-17T18:27:06.058Z,71.93
2017-11-17T18:29:32.549Z,72.11
2017-11-17T18:31:59.087Z,72.14
2017-11-17T18:34:25.793Z,71.95
2017-11-17T18:36:52.348Z,71.90
2017-11-17T18:39:20.942Z,71.62
2017-11-17T18:41:47.423Z,71.75
2017-11-17T18:44:13.857Z,71.66
2017-11-17T18:46:41.371Z,71.89
2017-11-17T18:49:07.743Z,71.72
2017-11-17T18:51:34.206Z,71.70
2017-11-17T18:54:00.718Z,71.51
2017-11-17T18:56:27.214Z,71.59
2017-11-17T18:58:53.700Z,71.50
2017-11-17T19:01:20.088Z,71.46
2017-11-17T19:03:46.483Z,71.45
2017-11-17T19:06:12.972Z,71.73
2017-11-17T19:08:39.454Z,71.71
2017-11-17T19:11:05.871Z,71.96
2017-11-17T19:13:32.319Z,72.11
2017-11-17T19:15:58.698Z,72.12
2017-11-17T19:18:25.202Z,72.02
2017-11-17T19:20:51.652Z,72.04
2017-11-17T19:23:18.171Z,71.68
2017-11-17T19:25:45.403Z,72.19
2017-11-17T19:28:11.830Z,72.56
2017-11-17T19:30:38.392Z,72.24
2017-11-17T19:33:04.798Z,72.42
2017-11-17T19:35:31.210Z,72.87
2017-11-17T19:37:57.694Z,72.65
2017-11-17T19:40:24.099Z,73.06
2017-11-17T19:42:50.546Z,73.63
2017-11-17T19:45:17.873Z,73.28
2017-11-17T19:47:44.294Z,73.37
2017-11-17T19:50:10.745Z,73.28
2017-11-17T19:52:37.420Z,73.47
2017-11-17T19:55:05.168Z,73.35
2017-11-17T19:57:31.589Z,73.32
2017-11-17T19:59:58.813Z,73.35
2017-11-17T20:02:26.093Z,73.48
2017-11-17T20:04:52.606Z,73.31
2017-11-17T20:07:19.016Z,73.65
2017-11-17T20:09:45.378Z,73.46
2017-11-17T20:12:11.846Z,73.67
2017-11-17T20:14:38.233Z,73.87
2017-11-17T20:17:04.646Z,73.86
2017-11-17T20:19:31.154Z,74.34
2017-11-17T20:21:59.471Z,73.99
2017-11-17T20:24:25.913Z,75.15
2017-11-17T20:26:52.324Z,75.71
2017-11-17T20:29:18.723Z,74.88
2017-11-17T20:31:45.901Z,75.36
2017-11-17T20:34:12.330Z,75.33
2017-11-17T20:36:38.695Z,75.83
2017-11-17T20:39:05.075Z,76.27
2017-11-17T20:41:33.143Z,75.85
2017-11-17T20:43:59.538Z,75.34
2017-11-17T20:46:25.918Z,75.36
2017-11-17T20:48:52.318Z,75.57
2017-11-17T20:51:18.681Z,75.68
2017-11-17T20:53:45.084Z,75.37
2017-11-17T20:56:11.545Z,75.62
2017-11-17T20:58:38.053Z,75.01
2017-11-17T21:01:04.463Z,74.74
2017-11-17T21:03:30.962Z,75.18
2017-11-17T21:05:57.364Z,75.38
2017-11-17T21:08:23.774Z,76.33
2017-11-17T21:10:50.221Z,76.59
2017-11-17T21:13:16.625Z,76.90
2017-11-17T21:15:43.017Z,77.06
2017-11-17T21:18:09.479Z,77.06
2017-11-17T21:20:36.802Z,77.29
2017-11-17T21:23:03.178Z,77.01
2017-11-17T21:25:29.613Z,77.24
2017-11-17T21:27:56.001Z,76.93
2017-11-17T21:30:22.542Z,76.84
2017-11-17T21:32:48.994Z,77.36
2017-11-17T21:35:15.533Z,77.25
2017-11-17T21:37:41.908Z,77.70
2017-11-17T21:40:08.342Z,77.18
2017-11-17T21:42:34.731Z,77.24
2017-11-17T21:45:01.101Z,76.88
2017-11-17T21:47:27.534Z,76.79
2017-11-17T21:49:53.983Z,76.56
2017-11-17T21:52:20.429Z,76.50
2017-11-17T21:54:46.818Z,76.97
2017-11-17T21:57:13.300Z,76.21
2017-11-17T21:59:39.769Z,76.36
2017-11-17T22:02:06.295Z,76.19
2017-11-17T22:04:32.846Z,76.21
2017-11-17T22:06:59.218Z,76.44
2017-11-17T22:09:25.625Z,77.32
2017-11-17T22:11:52.079Z,77.41
2017-11-17T22:14:18.614Z,77.03
2017-11-17T22:16:45.027Z,76.66
2017-11-17T22:19:11.575Z,76.53
2017-11-17T22:21:38.046Z,76.90
2017-11-17T22:24:04.509Z,77.22
2017-11-17T22:26:30.904Z,76.95
2017-11-17T22:28:57.314Z,76.89
2017-11-17T22:31:23.738Z,77.41
2017-11-17T22:33:50.146Z,76.94
2017-11-17T22:36:16.541Z,76.83
2017-11-17T22:38:43.076Z,76.97
2017-11-17T22:41:09.547Z,77.33
2017-11-17T22:43:35.994Z,77.09
2017-11-17T22:46:02.406Z,77.28
2017-11-17T22:48:28.847Z,76.86
2017-11-17T22:50:55.231Z,76.76
2017-11-17T22:53:21.727Z,77.25
2017-11-17T22:55:48.133Z,77.83
2017-11-17T22:58:14.515Z,77.56
2017-11-17T23:00:41.069Z,77.13
2017-11-17T23:03:07.383Z,77.27
2017-11-17T23:05:33.850Z,76.98
2017-11-17T23:08:00.406Z,76.71
2017-11-17T23:10:26.753Z,76.76
2017-11-17T23:12:53.107Z,76.45
2017-11-17T23:15:19.622Z,75.44
2017-11-17T23:17:45.998Z,75.70
2017-11-17T23:20:12.439Z,76.59
2017-11-17T23:22:38.835Z,76.96
2017-11-17T23:25:05.185Z,76.90
2017-11-17T23:27:31.551Z,76.39
2017-11-17T23:29:57.966Z,76.56
2017-11-17T23:32:24.325Z,76.95
2017-11-17T23:34:50.774Z,77.32
2017-11-17T23:37:17.202Z,76.92
2017-11-17T23:39:43.595Z,77.22
2017-11-17T23:42:09.977Z,77.58
2017-11-17T23:44:36.450Z,77.17
2017-11-17T23:47:02.833Z,77.28
2017-11-17T23:49:29.210Z,77.16
2017-11-17T23:51:55.659Z,77.06
2017-11-17T23:54:22.110Z,77.23
2017-11-17T23:56:48.478Z,77.48
2017-11-17T23:59:14.909Z,77.00
